General Aviation Weather

Text Reports

Enter one or more of the following location identifiers separated by a space:

Zip Code, Four-Character ICAO or Three-Character IATA airport codes.

METAR - Aviation Routine Weather Report
KOCH - Nacogdoches, Texas
Updated at 5:35 PM GMT on May 22, 2015 (12:35 PM CDT):
METAR KOCH 221735Z AUTO 11007KT BKN014 19/15 A3017 RMK AO1
TAF - Terminal Area Forecast
KOCH - Nacogdoches, Texas
Updated at 5:35 PM GMT on May 22, 2015 (12:35 PM CDT):
No TAF is currently available for this location.
Decoded:
No decoded TAF is available.
PIREP - Pilot Weather Report
KOCH - Nacogdoches, Texas
Updated at 5:35 PM GMT on May 22, 2015 (12:35 PM CDT):
No PIREP is currently available for this location.
AIRMET - Airmens Meteorological Information
KOCH - Nacogdoches, Texas
Updated at 5:35 PM GMT on May 22, 2015 (12:35 PM CDT):
No AIRMET is currently available for this location.
SIGMET - Significant Meteorological Information
KOCH - Nacogdoches, Texas
Updated at 5:35 PM GMT on May 22, 2015 (12:35 PM CDT):
No SIGMET is currently available for this location.
NOTAM - Notice to Airmen
KOCH - Nacogdoches, Texas
Updated at 5:35 PM GMT on May 22, 2015 (12:35 PM CDT):
No NOTAM is currently available for this location.
Forecast Area
KOCH - Nacogdoches, Texas
Updated at 5:35 PM GMT on May 22, 2015 (12:35 PM CDT):
No NOTAM is currently available for this location.
Aviation Weather Maps